createdAt,value
2018-04-28T00:04:38.164Z,13.73
2018-04-28T00:09:29.898Z,12.83
2018-04-28T00:14:21.628Z,12.20
2018-04-28T00:19:14.228Z,12.57
2018-04-28T00:24:06.236Z,12.90
2018-04-28T00:29:01.388Z,10.87
2018-04-28T00:33:52.377Z,15.40
2018-04-28T00:39:01.048Z,11.90
2018-04-28T00:43:53.000Z,11.90
2018-04-28T00:48:58.084Z,14.93
2018-04-28T00:53:49.198Z,12.87
2018-04-28T00:58:56.152Z,16.90
2018-04-28T01:09:23.201Z,13.03
2018-04-28T01:14:14.941Z,14.17
2018-04-28T01:19:10.985Z,15.80
2018-04-28T01:24:17.712Z,12.50
2018-04-28T01:29:16.552Z,16.43
2018-04-28T01:34:13.519Z,20.80
2018-04-28T01:39:07.504Z,14.10
2018-04-28T01:44:14.305Z,12.90
2018-04-28T01:49:05.302Z,14.07
2018-04-28T01:59:23.956Z,13.90
2018-04-28T02:04:15.955Z,14.53
2018-04-28T02:09:06.981Z,18.03
2018-04-28T02:14:30.039Z,14.13
2018-04-28T02:19:21.909Z,16.30
2018-04-28T02:29:47.476Z,13.60
2018-04-28T02:34:55.541Z,14.97
2018-04-28T02:39:56.577Z,13.73
2018-04-28T02:50:26.116Z,14.20
2018-04-28T02:55:53.739Z,13.47
2018-04-28T03:06:40.765Z,17.60
2018-04-28T03:11:31.816Z,15.60
2018-04-28T03:16:28.763Z,15.07
2018-04-28T03:21:19.772Z,15.10
2018-04-28T03:26:15.772Z,15.87
2018-04-28T03:31:10.324Z,16.77
2018-04-28T03:36:25.381Z,15.43
2018-04-28T03:41:18.375Z,15.07
2018-04-28T03:51:44.510Z,19.27
2018-04-28T03:56:36.306Z,19.00
2018-04-28T04:01:46.098Z,15.73
2018-04-28T04:06:39.150Z,13.93
2018-04-28T04:11:39.437Z,16.63
2018-04-28T04:22:07.279Z,14.27
2018-04-28T04:27:04.568Z,18.47
2018-04-28T04:32:10.553Z,16.20
2018-04-28T04:37:01.617Z,18.50
2018-04-28T04:41:59.372Z,16.83
2018-04-28T04:52:38.399Z,17.50
2018-04-28T04:57:43.297Z,17.80
2018-04-28T05:02:38.444Z,19.07
2018-04-28T05:07:45.462Z,17.33
2018-04-28T05:12:50.513Z,13.90
2018-04-28T05:17:50.108Z,15.30
2018-04-28T05:28:28.109Z,17.57
2018-04-28T05:38:59.661Z,16.77
2018-04-28T05:44:09.436Z,14.00
2018-04-28T05:49:16.506Z,17.80
2018-04-28T05:54:24.970Z,14.37
2018-04-28T06:05:23.681Z,14.67
2018-04-28T06:15:44.570Z,17.80
2018-04-28T06:20:37.701Z,11.37
2018-04-28T06:25:28.697Z,13.57
2018-04-28T06:30:19.718Z,30.17
2018-04-28T06:35:10.736Z,15.80
2018-04-28T06:40:02.459Z,13.03
2018-04-28T06:44:54.255Z,10.43
2018-04-28T06:49:45.279Z,12.00
2018-04-28T06:54:36.512Z,13.90
2018-04-28T06:59:27.545Z,11.27
2018-04-28T07:04:18.545Z,12.90
2018-04-28T07:09:09.565Z,11.50
2018-04-28T07:14:00.573Z,16.40
2018-04-28T07:18:51.601Z,10.33
2018-04-28T07:23:42.725Z,12.07
2018-04-28T07:28:33.743Z,12.20
2018-04-28T07:33:24.759Z,15.03
2018-04-28T07:38:15.769Z,12.20
2018-04-28T07:43:07.618Z,14.33
2018-04-28T07:47:59.384Z,11.10
2018-04-28T07:52:50.435Z,11.30
2018-04-28T07:57:42.547Z,8.70
2018-04-28T08:02:33.698Z,12.57
2018-04-28T08:07:24.712Z,8.77
2018-04-28T08:12:15.725Z,11.47
2018-04-28T08:17:06.739Z,12.70
2018-04-28T08:21:57.900Z,12.83
2018-04-28T08:26:48.921Z,15.43
2018-04-28T08:31:40.364Z,8.70
2018-04-28T08:36:31.378Z,9.63
2018-04-28T08:41:22.438Z,10.50
2018-04-28T08:46:14.227Z,8.67
2018-04-28T08:51:05.274Z,11.37
2018-04-28T08:55:56.306Z,13.23
2018-04-28T09:01:02.340Z,9.33
2018-04-28T09:05:53.384Z,8.83
2018-04-28T09:10:44.466Z,9.07
2018-04-28T09:15:36.257Z,9.70
2018-04-28T09:20:27.365Z,9.47
2018-04-28T09:25:18.390Z,9.03
2018-04-28T09:30:09.429Z,10.40
2018-04-28T09:35:00.473Z,8.07
2018-04-28T09:39:51.527Z,7.50
2018-04-28T09:44:50.260Z,9.20
2018-04-28T09:49:41.392Z,5.63
2018-04-28T09:54:32.488Z,8.57
2018-04-28T09:59:23.550Z,10.53
2018-04-28T10:04:20.726Z,11.30
2018-04-28T10:09:11.959Z,11.43
2018-04-28T10:14:03.033Z,11.17
2018-04-28T10:18:54.184Z,11.23
2018-04-28T10:23:45.226Z,11.00
2018-04-28T10:28:36.405Z,11.20
2018-04-28T10:33:27.559Z,7.70
2018-04-28T10:38:18.605Z,10.03
2018-04-28T10:43:09.696Z,11.17
2018-04-28T10:48:00.734Z,7.97
2018-04-28T10:52:51.915Z,9.57
2018-04-28T10:57:42.990Z,7.83
2018-04-28T11:02:34.032Z,10.10
2018-04-28T11:07:25.082Z,7.83
2018-04-28T11:12:16.951Z,8.63
2018-04-28T11:17:08.059Z,10.47
2018-04-28T11:21:59.932Z,8.13
2018-04-28T11:26:50.955Z,10.10
2018-04-28T11:31:42.094Z,7.97
2018-04-28T11:36:33.132Z,8.93
2018-04-28T11:41:24.174Z,9.00
2018-04-28T11:46:15.395Z,10.67
2018-04-28T11:51:06.460Z,8.87
2018-04-28T11:55:57.626Z,10.60
2018-04-28T12:00:48.802Z,7.33
2018-04-28T12:05:39.840Z,10.17
2018-04-28T12:10:30.940Z,8.60
2018-04-28T12:15:22.747Z,7.33
2018-04-28T12:20:13.798Z,6.80
2018-04-28T12:25:04.853Z,5.67
2018-04-28T12:29:55.986Z,5.30
2018-04-28T12:34:46.982Z,4.97
2018-04-28T12:39:38.783Z,7.33
2018-04-28T12:44:29.859Z,7.00
2018-04-28T12:49:20.898Z,8.17
2018-04-28T12:54:12.031Z,5.23
2018-04-28T12:59:03.084Z,5.30
2018-04-28T13:03:54.110Z,4.97
2018-04-28T13:08:45.180Z,9.80
2018-04-28T13:13:37.008Z,6.40
2018-04-28T13:18:28.804Z,5.47
2018-04-28T13:23:19.863Z,3.73
2018-04-28T13:28:10.893Z,5.73
2018-04-28T13:33:01.959Z,5.63
2018-04-28T13:37:53.028Z,6.47
2018-04-28T13:42:44.088Z,4.37
2018-04-28T13:47:35.907Z,8.53
2018-04-28T13:52:27.795Z,6.63
2018-04-28T13:57:18.857Z,5.17
2018-04-28T14:02:09.905Z,3.07
2018-04-28T14:07:01.713Z,8.03
2018-04-28T14:11:52.811Z,4.53
2018-04-28T14:16:43.841Z,4.03
2018-04-28T14:21:34.879Z,7.53
2018-04-28T14:26:25.933Z,4.30
2018-04-28T14:31:17.796Z,5.47
2018-04-28T14:36:08.900Z,4.50
2018-04-28T14:41:00.760Z,7.93
2018-04-28T14:45:52.625Z,4.13
2018-04-28T14:50:43.654Z,4.47
2018-04-28T14:55:34.693Z,4.33
2018-04-28T15:00:25.888Z,3.43
2018-04-28T15:05:16.969Z,4.40
2018-04-28T15:10:08.042Z,5.27
2018-04-28T15:14:59.164Z,6.43
2018-04-28T15:19:50.196Z,8.27
2018-04-28T15:24:41.287Z,6.27
2018-04-28T15:29:33.164Z,6.63
2018-04-28T15:34:24.248Z,8.73
2018-04-28T15:39:16.088Z,4.93
2018-04-28T15:44:07.897Z,4.30
2018-04-28T15:49:00.016Z,4.30
2018-04-28T15:53:51.063Z,4.70
2018-04-28T15:58:42.203Z,5.07
2018-04-28T16:03:33.386Z,4.03
2018-04-28T16:08:24.437Z,8.80
2018-04-28T16:13:15.630Z,5.73
2018-04-28T16:18:06.685Z,5.00
2018-04-28T16:22:57.904Z,4.40
2018-04-28T16:27:49.007Z,6.17
2018-04-28T16:32:40.043Z,5.10
2018-04-28T16:37:31.082Z,5.60
2018-04-28T16:42:22.180Z,3.73
2018-04-28T16:47:13.400Z,6.33
2018-04-28T16:52:04.479Z,8.43
2018-04-28T16:56:55.552Z,1.93
2018-04-28T17:01:46.641Z,7.37
2018-04-28T17:06:38.546Z,5.27
2018-04-28T17:11:29.635Z,3.97
2018-04-28T17:16:20.679Z,4.13
2018-04-28T17:21:11.711Z,4.37
2018-04-28T17:26:02.768Z,6.27
2018-04-28T17:30:53.821Z,6.03
2018-04-28T17:35:44.916Z,5.60
2018-04-28T17:40:35.964Z,4.77
2018-04-28T17:45:27.027Z,6.23
2018-04-28T17:50:18.115Z,3.77
2018-04-28T17:55:09.187Z,3.50
2018-04-28T18:00:00.275Z,9.33
2018-04-28T18:04:51.399Z,6.30
2018-04-28T18:09:42.524Z,4.00
2018-04-28T18:14:33.664Z,4.63
2018-04-28T18:19:24.680Z,6.83
2018-04-28T18:24:15.783Z,10.17
2018-04-28T18:29:06.947Z,7.33
2018-04-28T18:33:58.075Z,8.47
2018-04-28T18:38:49.162Z,8.30
2018-04-28T18:43:40.223Z,12.87
2018-04-28T18:48:31.361Z,8.83
2018-04-28T18:53:22.672Z,12.50
2018-04-28T18:58:14.115Z,11.13
2018-04-28T19:03:05.204Z,10.83
2018-04-28T19:07:56.255Z,13.40
2018-04-28T19:12:47.360Z,13.50
2018-04-28T19:17:38.612Z,7.63
2018-04-28T19:22:30.107Z,10.17
2018-04-28T19:27:21.153Z,10.43
2018-04-28T19:32:12.268Z,11.87
2018-04-28T19:37:03.369Z,11.63
2018-04-28T19:41:55.204Z,15.13
2018-04-28T19:46:47.004Z,10.27
2018-04-28T19:51:38.054Z,13.57
2018-04-28T19:56:29.848Z,8.90
2018-04-28T20:01:20.939Z,10.63
2018-04-28T20:06:12.740Z,12.77
2018-04-28T20:11:03.896Z,13.37
2018-04-28T20:15:55.697Z,11.93
2018-04-28T20:20:46.736Z,9.43
2018-04-28T20:25:37.797Z,8.43
2018-04-28T20:30:28.843Z,13.10
2018-04-28T20:35:19.962Z,10.43
2018-04-28T20:40:11.043Z,11.17
2018-04-28T20:45:02.234Z,12.23
2018-04-28T20:49:53.333Z,10.47
2018-04-28T20:54:44.405Z,9.43
2018-04-28T20:59:35.464Z,12.53
2018-04-28T21:04:26.641Z,13.80
2018-04-28T21:09:17.768Z,11.23
2018-04-28T21:14:08.890Z,11.33
2018-04-28T21:19:00.027Z,14.00
2018-04-28T21:23:51.166Z,8.83
2018-04-28T21:28:42.967Z,8.13
2018-04-28T21:33:34.029Z,19.23
2018-04-28T21:38:25.177Z,20.60
2018-04-28T21:43:16.947Z,10.80
2018-04-28T21:48:08.147Z,15.13
2018-04-28T21:52:59.923Z,11.03
2018-04-28T21:57:50.983Z,11.23
2018-04-28T22:02:42.032Z,10.73
2018-04-28T22:07:33.816Z,11.27
2018-04-28T22:12:24.901Z,9.17
2018-04-28T22:17:15.942Z,11.20
2018-04-28T22:22:06.984Z,10.50
2018-04-28T22:26:58.098Z,15.60
2018-04-28T22:31:49.156Z,13.70
2018-04-28T22:36:40.304Z,10.03
2018-04-28T22:41:32.116Z,13.23
2018-04-28T22:46:23.209Z,11.23
2018-04-28T22:51:14.255Z,13.30
2018-04-28T22:56:05.352Z,13.50
2018-04-28T23:00:56.451Z,15.43
2018-04-28T23:05:48.257Z,14.77
2018-04-28T23:10:40.125Z,15.27
2018-04-28T23:15:31.921Z,15.20
2018-04-28T23:20:22.962Z,15.53
2018-04-28T23:25:14.009Z,16.77
2018-04-28T23:30:05.760Z,12.87
2018-04-28T23:34:57.589Z,16.07
2018-04-28T23:39:49.396Z,15.87
2018-04-28T23:44:40.473Z,14.43
2018-04-28T23:49:31.508Z,16.87
2018-04-28T23:54:22.605Z,15.87
2018-04-28T23:59:14.380Z,12.80
